Time;durP1;ratioP1;P1;durP2;ratioP2;P2;SDS_P1;SDS_P2;PMS_P1;PMS_P2;Temp;Humidity;BMP_temperature;BMP_pressure;BME280_temperature;BME280_humidity;BME280_pressure;Samples;Min_cycle;Max_cycle;Signal;HPM_P1;HPM_P2
2022/06/30 00:00:46;;;;;;;;;7.25;7.25;;;;;24.07;51.34;98710.22;5076933;27;45449;-53
2022/06/30 00:03:12;;;;;;;;;11.50;10.25;;;;;24.06;51.02;98707.66;5077103;28;45602;-52
2022/06/30 00:05:37;;;;;;;;;11.50;10.00;;;;;24.06;51.54;98713.91;5076537;27;45472;-53
2022/06/30 00:08:04;;;;;;;;;9.25;8.50;;;;;24.05;51.34;98706.81;5098309;27;45458;-54
2022/06/30 00:10:30;;;;;;;;;9.75;9.25;;;;;24.03;51.18;98706.13;5080229;27;45455;-52
2022/06/30 00:12:55;;;;;;;;;10.25;7.50;;;;;23.99;51.58;98694.81;5076332;27;46309;-52
2022/06/30 00:15:20;;;;;;;;;9.00;9.00;;;;;23.97;51.65;98702.22;5076852;27;45499;-53
2022/06/30 00:17:47;;;;;;;;;10.75;9.75;;;;;23.91;51.73;98697.47;5076957;27;45376;-54
2022/06/30 00:20:12;;;;;;;;;9.00;9.00;;;;;23.89;51.78;98691.38;5076385;27;45440;-53
2022/06/30 00:22:38;;;;;;;;;9.75;9.25;;;;;23.90;52.15;98685.00;5076722;28;45411;-53
2022/06/30 00:25:04;;;;;;;;;10.50;9.00;;;;;23.88;51.77;98689.69;5075177;28;45402;-53
2022/06/30 00:27:29;;;;;;;;;10.50;10.50;;;;;23.88;51.98;98688.84;5076291;27;45399;-53
2022/06/30 00:29:55;;;;;;;;;9.75;9.75;;;;;23.88;52.58;98683.47;5076006;27;45284;-50
2022/06/30 00:32:20;;;;;;;;;9.50;9.50;;;;;23.87;52.51;98679.94;5076238;27;46338;-54
2022/06/30 00:34:46;;;;;;;;;9.50;9.50;;;;;23.86;52.46;98680.06;5076199;27;45470;-53
2022/06/30 00:37:11;;;;;;;;;8.50;8.50;;;;;23.83;52.69;98683.94;5076343;27;45364;-53
2022/06/30 00:39:36;;;;;;;;;11.50;9.75;;;;;23.80;53.01;98681.53;5076316;27;45399;-53
2022/06/30 00:42:05;;;;;;;;;10.25;10.00;;;;;23.76;52.99;98674.78;5075536;27;45700;-53
2022/06/30 00:44:30;;;;;;;;;10.00;10.00;;;;;23.73;52.97;98674.25;5075990;28;45419;-50
2022/06/30 00:46:56;;;;;;;;;8.50;8.25;;;;;23.70;53.33;98675.41;5075284;28;45316;-53
2022/06/30 00:49:22;;;;;;;;;10.00;9.00;;;;;23.70;53.24;98682.63;5075693;28;45317;-51
2022/06/30 00:51:47;;;;;;;;;9.00;9.00;;;;;23.67;53.07;98676.56;5076160;28;45439;-53
2022/06/30 00:54:13;;;;;;;;;10.00;10.00;;;;;23.65;53.20;98677.72;5075729;28;45419;-52
2022/06/30 00:56:45;;;;;;;;;11.00;9.50;;;;;23.63;53.71;98677.84;5075511;28;45503;-52
2022/06/30 00:59:13;;;;;;;;;9.50;9.50;;;;;23.61;53.45;98671.81;5076207;28;45592;-53
2022/06/30 01:01:39;;;;;;;;;12.00;9.50;;;;;23.61;53.44;98677.19;5075911;27;45514;-54
2022/06/30 01:04:07;;;;;;;;;9.40;9.40;;;;;23.61;53.73;98676.34;5075076;27;45446;-50
2022/06/30 01:06:32;;;;;;;;;12.75;11.50;;;;;23.61;53.73;98682.59;5076039;27;45371;-53
2022/06/30 01:08:58;;;;;;;;;9.50;9.50;;;;;23.60;53.98;98667.44;5085319;27;45534;-53
2022/06/30 01:14:12;;;;;;;;;11.00;11.00;;;;;23.56;54.08;98663.34;5065234;27;45498;-51
2022/06/30 01:16:39;;;;;;;;;10.50;10.50;;;;;23.56;54.51;98665.19;5076029;28;45401;-53
2022/06/30 01:19:05;;;;;;;;;9.50;9.50;;;;;23.52;54.83;98675.41;5075420;27;45430;-53
2022/06/30 01:21:30;;;;;;;;;12.00;10.25;;;;;23.49;54.86;98678.38;5075408;27;46592;-53
2022/06/30 01:23:58;;;;;;;;;13.25;10.50;;;;;23.48;54.73;98673.16;5075589;28;45326;-50
2022/06/30 01:26:24;;;;;;;;;9.00;9.00;;;;;23.45;54.66;98666.25;5074993;28;45472;-51
2022/06/30 01:28:51;;;;;;;;;9.50;9.50;;;;;23.43;54.93;98664.72;5075553;28;45468;-54
2022/06/30 01:31:17;;;;;;;;;10.75;10.75;;;;;23.40;54.98;98656.94;5075383;27;46240;-54
2022/06/30 01:33:42;;;;;;;;;12.20;11.80;;;;;23.39;55.23;98663.31;5074732;28;45471;-54
2022/06/30 01:36:08;;;;;;;;;10.00;10.00;;;;;23.37;54.97;98660.78;5075687;27;45502;-53
2022/06/30 01:38:33;;;;;;;;;9.00;9.00;;;;;23.37;55.51;98668.00;5075098;27;45419;-54
2022/06/30 01:40:59;;;;;;;;;11.50;11.25;;;;;23.35;55.40;98670.00;5073942;27;46494;-53
2022/06/30 01:43:24;;;;;;;;;10.25;9.75;;;;;23.33;55.62;98662.91;5074908;27;45406;-53
2022/06/30 01:45:49;;;;;;;;;10.00;10.00;;;;;23.32;55.64;98663.06;5075472;27;45460;-52
2022/06/30 01:48:15;;;;;;;;;9.50;9.25;;;;;23.33;55.79;98654.84;5075484;27;45409;-53
2022/06/30 01:50:40;;;;;;;;;13.00;13.00;;;;;23.33;55.63;98665.63;5075384;27;46193;-52
2022/06/30 01:53:06;;;;;;;;;9.25;9.25;;;;;23.33;55.98;98667.47;5074188;28;45395;-53
2022/06/30 01:55:31;;;;;;;;;6.75;6.00;;;;;23.29;56.01;98672.28;5075552;28;45356;-52
2022/06/30 01:57:57;;;;;;;;;10.25;10.25;;;;;23.26;56.04;98661.00;5074374;27;45516;-52
2022/06/30 02:00:25;;;;;;;;;9.20;9.00;;;;;23.23;56.24;98670.22;5075030;27;45506;-52
2022/06/30 02:02:51;;;;;;;;;11.40;11.20;;;;;23.21;56.32;98674.91;5073645;28;45367;-53
2022/06/30 02:05:17;;;;;;;;;8.75;8.75;;;;;23.18;56.13;98668.97;5074902;27;45579;-53
2022/06/30 02:07:43;;;;;;;;;11.00;11.00;;;;;23.15;56.40;98671.97;5077876;27;45515;-53
2022/06/30 02:10:12;;;;;;;;;11.00;11.00;;;;;23.12;56.37;98667.78;5080807;27;46233;-52
2022/06/30 02:12:47;;;;;;;;;12.40;10.60;;;;;23.09;56.53;98664.53;5073586;28;45417;-51
2022/06/30 02:15:14;;;;;;;;;12.00;10.00;;;;;23.06;56.64;98664.81;5074726;27;45336;-52
2022/06/30 02:17:40;;;;;;;;;11.00;10.50;;;;;23.02;57.09;98666.97;5075268;27;45508;-53
2022/06/30 02:20:07;;;;;;;;;13.00;12.25;;;;;22.98;56.73;98666.41;5074649;27;46319;-53
2022/06/30 02:22:34;;;;;;;;;10.00;9.80;;;;;22.92;57.72;98672.41;5075248;27;45539;-53
2022/06/30 02:24:59;;;;;;;;;13.00;12.75;;;;;22.91;57.69;98664.50;5074813;27;45445;-49
2022/06/30 02:27:25;;;;;;;;;10.00;10.00;;;;;22.87;58.20;98661.25;5074478;27;45385;-52
2022/06/30 02:29:51;;;;;;;;;11.75;10.50;;;;;22.85;57.85;98660.56;5074481;27;47012;-51
2022/06/30 02:32:18;;;;;;;;;11.80;11.00;;;;;22.85;57.80;98667.78;5074876;27;45334;-52
2022/06/30 02:34:43;;;;;;;;;11.40;11.40;;;;;22.82;58.37;98671.59;5074611;27;45245;-52
2022/06/30 02:37:09;;;;;;;;;11.75;11.25;;;;;22.77;58.13;98676.59;5075117;27;45469;-52
2022/06/30 02:39:34;;;;;;;;;11.50;10.00;;;;;22.73;58.52;98677.00;5072227;28;46507;-51
2022/06/30 02:42:00;;;;;;;;;11.00;11.00;;;;;22.69;58.45;98676.44;5098541;27;45454;-53
2022/06/30 02:44:25;;;;;;;;;9.25;9.25;;;;;22.62;58.39;98684.25;5069373;28;45348;-51
2022/06/30 02:46:51;;;;;;;;;10.75;10.75;;;;;22.60;59.18;98693.47;5074961;27;45566;-53
2022/06/30 02:49:20;;;;;;;;;10.50;10.50;;;;;22.56;58.68;98695.59;5073084;28;47323;-52
2022/06/30 02:51:45;;;;;;;;;13.60;11.00;;;;;22.47;58.66;98699.16;5074698;27;45377;-51
2022/06/30 02:54:11;;;;;;;;;12.25;10.50;;;;;22.36;59.05;98711.94;5074790;27;45394;-51
2022/06/30 02:56:37;;;;;;;;;11.00;11.00;;;;;22.24;59.63;98713.94;5074677;27;45613;-69
2022/06/30 02:59:02;;;;;;;;;12.75;12.25;;;;;22.15;60.04;98725.53;5074497;27;46362;-58
2022/06/30 03:01:27;;;;;;;;;10.25;10.25;;;;;21.99;59.71;98730.63;5074344;27;45388;-58
2022/06/30 03:03:53;;;;;;;;;14.00;12.00;;;;;21.78;60.29;98747.75;5074362;27;45308;-58
2022/06/30 03:06:18;;;;;;;;;9.25;9.25;;;;;21.59;60.73;98762.00;5074771;27;45417;-58
2022/06/30 03:08:44;;;;;;;;;12.25;10.50;;;;;21.42;60.40;98751.94;5074260;27;45423;-58
2022/06/30 03:11:16;;;;;;;;;12.50;12.00;;;;;21.30;60.44;98762.91;5076240;27;45374;-58
2022/06/30 03:13:44;;;;;;;;;9.40;8.20;;;;;21.17;60.17;98763.97;5077712;27;45430;-58
2022/06/30 03:16:11;;;;;;;;;9.25;9.25;;;;;21.06;60.80;98756.06;5078035;27;45391;-58
2022/06/30 03:18:36;;;;;;;;;6.75;6.75;;;;;21.00;60.66;98764.63;5077206;27;46314;-57
2022/06/30 03:21:01;;;;;;;;;10.50;10.50;;;;;20.92;60.98;98766.31;5077724;27;45563;-57
2022/06/30 03:23:27;;;;;;;;;8.00;8.00;;;;;20.79;60.97;98764.69;5077675;27;45401;-57
2022/06/30 03:25:52;;;;;;;;;10.75;10.75;;;;;20.68;61.57;98769.28;5077801;27;45396;-58
2022/06/30 03:28:18;;;;;;;;;11.00;8.00;;;;;20.57;62.15;98764.03;5075934;28;45675;-58
2022/06/30 03:30:47;;;;;;;;;9.00;9.00;;;;;20.48;61.32;98761.16;5077023;27;45484;-58
2022/06/30 03:33:13;;;;;;;;;11.00;10.00;;;;;20.42;62.39;98761.69;5077431;27;45367;-58
2022/06/30 03:35:38;;;;;;;;;10.50;8.50;;;;;20.41;61.48;98757.31;5077647;27;45332;-58
2022/06/30 03:38:04;;;;;;;;;9.25;9.00;;;;;20.40;61.76;98754.78;5077070;27;46204;-58
2022/06/30 03:40:30;;;;;;;;;9.60;9.00;;;;;20.40;61.81;98755.63;5077337;27;45428;-57
2022/06/30 03:42:56;;;;;;;;;8.75;8.75;;;;;20.42;61.56;98761.69;5077550;27;45208;-58
2022/06/30 03:45:21;;;;;;;;;10.75;8.00;;;;;20.45;61.09;98756.06;5077340;27;45375;-58
2022/06/30 03:47:46;;;;;;;;;10.75;8.00;;;;;20.47;60.36;98756.78;5077330;27;45562;-58
2022/06/30 03:50:12;;;;;;;;;7.00;7.00;;;;;20.53;59.67;98755.41;5077225;27;45431;-58
2022/06/30 03:52:37;;;;;;;;;7.00;7.00;;;;;20.55;59.71;98756.97;5077380;27;45554;-58
2022/06/30 03:55:03;;;;;;;;;8.75;8.75;;;;;20.62;59.52;98767.97;5077319;27;45403;-57
2022/06/30 03:57:28;;;;;;;;;8.25;8.25;;;;;20.68;59.72;98777.31;5077402;27;46156;-58
2022/06/30 03:59:54;;;;;;;;;8.50;7.25;;;;;20.70;60.11;98775.38;5077333;27;45439;-58
2022/06/30 04:02:19;;;;;;;;;11.00;6.50;;;;;20.68;60.27;98780.00;5077006;27;45399;-57
2022/06/30 04:04:44;;;;;;;;;7.75;7.25;;;;;20.64;60.94;98775.88;5075599;28;45429;-57
2022/06/30 04:07:10;;;;;;;;;6.75;6.75;;;;;20.59;60.65;98776.31;5076759;27;45574;-58
2022/06/30 04:09:35;;;;;;;;;8.75;8.75;;;;;20.52;60.63;98775.13;5077010;27;45418;-58
2022/06/30 04:12:00;;;;;;;;;8.25;8.00;;;;;20.44;60.52;98770.41;5077263;27;45593;-58
2022/06/30 04:14:26;;;;;;;;;7.25;7.25;;;;;20.40;61.09;98785.09;5077053;27;45559;-58
2022/06/30 04:16:51;;;;;;;;;8.25;7.75;;;;;20.37;61.31;98781.81;5076638;27;45547;-58
2022/06/30 04:19:16;;;;;;;;;6.75;6.00;;;;;20.34;61.09;98782.88;5076417;27;45419;-58
2022/06/30 04:21:42;;;;;;;;;10.00;8.25;;;;;20.34;61.80;98784.72;5076608;27;45399;-58
2022/06/30 04:24:07;;;;;;;;;8.50;7.50;;;;;20.33;61.52;98783.84;5076345;27;45521;-58
2022/06/30 04:26:33;;;;;;;;;7.00;6.00;;;;;20.36;61.45;98782.75;5076404;27;45891;-58
2022/06/30 04:28:58;;;;;;;;;7.50;7.00;;;;;20.42;61.24;98790.31;5076516;27;45360;-58
2022/06/30 04:34:07;;;;;;;;;11.50;8.50;;;;;20.54;61.33;98784.75;5076188;28;45487;-58
2022/06/30 04:36:33;;;;;;;;;11.00;7.00;;;;;20.57;60.96;98783.63;5076474;27;46476;-58
2022/06/30 04:38:58;;;;;;;;;7.25;7.25;;;;;20.58;60.69;98781.81;5075298;28;46036;-58
2022/06/30 04:41:24;;;;;;;;;8.50;7.00;;;;;20.58;60.61;98784.47;5076362;27;45455;-58
2022/06/30 04:43:56;;;;;;;;;11.75;8.00;;;;;20.60;60.76;98787.88;5076259;27;45305;-58
2022/06/30 04:46:22;;;;;;;;;8.40;8.40;;;;;20.61;61.19;98785.03;5076050;28;45375;-58
2022/06/30 04:48:48;;;;;;;;;6.40;6.40;;;;;20.65;60.66;98781.13;5076029;27;45320;-58
2022/06/30 04:51:14;;;;;;;;;7.25;7.25;;;;;20.71;60.67;98783.28;5075976;27;45453;-58
2022/06/30 04:53:40;;;;;;;;;8.00;7.00;;;;;20.78;60.88;98773.69;5075802;28;45325;-58
2022/06/30 04:56:06;;;;;;;;;7.75;7.75;;;;;20.89;60.17;98786.19;5075664;27;46477;-58
2022/06/30 04:58:31;;;;;;;;;8.40;8.40;;;;;20.95;60.07;98777.59;5076173;28;45353;-58
2022/06/30 05:00:57;;;;;;;;;10.00;9.25;;;;;21.03;60.42;98783.13;5075478;27;45529;-58
2022/06/30 05:03:22;;;;;;;;;10.00;10.00;;;;;21.07;59.58;98784.56;5091168;27;45385;-58
2022/06/30 05:05:48;;;;;;;;;6.75;6.75;;;;;21.10;59.82;98776.25;5075356;27;45553;-58
2022/06/30 05:08:13;;;;;;;;;6.75;5.75;;;;;21.11;60.07;98775.28;5075267;27;45676;-58
2022/06/30 05:10:38;;;;;;;;;10.25;8.00;;;;;21.14;59.65;98787.53;5075527;28;45283;-58
2022/06/30 05:13:07;;;;;;;;;8.75;8.50;;;;;21.16;59.75;98774.84;5075417;27;45380;-58
2022/06/30 05:15:33;;;;;;;;;6.50;6.50;;;;;21.17;60.14;98776.53;5074976;27;45415;-58
2022/06/30 05:17:58;;;;;;;;;11.75;8.75;;;;;21.17;59.65;98776.53;5075720;27;45415;-58
2022/06/30 05:20:23;;;;;;;;;8.75;8.75;;;;;21.18;59.63;98775.56;5074600;27;45773;-58
2022/06/30 05:22:49;;;;;;;;;9.00;9.00;;;;;21.23;59.15;98770.66;5075636;27;45536;-58
2022/06/30 05:27:58;;;;;;;;;13.00;13.00;;;;;21.25;59.37;98774.06;5075330;28;45384;-58
2022/06/30 05:30:23;;;;;;;;;8.75;8.75;;;;;21.25;59.97;98763.34;5075749;27;45768;-58
2022/06/30 05:32:48;;;;;;;;;8.50;8.50;;;;;21.28;59.56;98765.75;5074710;27;45331;-58
2022/06/30 05:35:14;;;;;;;;;9.00;9.00;;;;;21.34;59.64;98767.88;5074209;27;45595;-58
2022/06/30 05:37:39;;;;;;;;;8.25;7.75;;;;;21.43;59.76;98760.84;5075018;27;45339;-58
2022/06/30 05:40:06;;;;;;;;;6.25;5.25;;;;;21.53;59.86;98751.81;5074474;27;45371;-58
2022/06/30 05:42:32;;;;;;;;;10.00;10.00;;;;;21.65;59.47;98744.47;5074705;27;45359;-58
2022/06/30 05:44:57;;;;;;;;;9.50;9.50;;;;;21.76;60.02;98746.19;5074728;27;45599;-58
2022/06/30 05:47:22;;;;;;;;;10.25;8.00;;;;;21.82;60.08;98742.91;5075029;27;45403;-58
2022/06/30 05:49:48;;;;;;;;;14.25;11.00;;;;;21.90;60.21;98749.28;5074630;27;45395;-57
2022/06/30 05:52:13;;;;;;;;;7.00;7.00;;;;;22.01;59.88;98750.16;5075126;27;45413;-58
2022/06/30 05:54:39;;;;;;;;;12.50;12.00;;;;;22.13;59.78;98757.91;5074637;27;45333;-58
2022/06/30 05:57:04;;;;;;;;;9.25;9.25;;;;;22.22;58.98;98756.22;5073948;27;45523;-57
2022/06/30 05:59:32;;;;;;;;;10.75;10.75;;;;;22.29;57.78;98762.69;5074268;27;45426;-58
2022/06/30 06:01:59;;;;;;;;;11.50;11.50;;;;;22.35;57.29;98759.44;5067706;27;45522;-58
2022/06/30 06:04:25;;;;;;;;;10.00;10.00;;;;;22.39;57.00;98755.47;5071793;28;46538;-58
2022/06/30 06:06:50;;;;;;;;;11.50;9.50;;;;;22.43;57.31;98761.41;5073780;28;45451;-58
2022/06/30 06:09:16;;;;;;;;;12.75;12.00;;;;;22.50;56.73;98755.28;5073242;27;45471;-58
2022/06/30 06:11:42;;;;;;;;;14.50;14.00;;;;;22.57;56.90;98755.56;5073097;27;45446;-58
2022/06/30 06:14:07;;;;;;;;;12.50;11.50;;;;;22.61;57.31;98756.97;5073052;28;46261;-58
2022/06/30 06:16:33;;;;;;;;;10.00;9.50;;;;;22.67;57.07;98748.31;5072764;27;45303;-58
2022/06/30 06:18:58;;;;;;;;;15.00;14.00;;;;;22.71;57.25;98744.34;5073270;27;45365;-58
2022/06/30 06:21:24;;;;;;;;;12.75;12.75;;;;;22.74;57.20;98744.06;5073588;27;45572;-58
2022/06/30 06:23:50;;;;;;;;;13.50;13.50;;;;;22.76;57.52;98752.81;5072476;28;45437;-58
2022/06/30 06:26:15;;;;;;;;;14.75;13.50;;;;;22.77;57.52;98756.38;5073466;27;45381;-58
2022/06/30 06:31:25;;;;;;;;;13.00;11.75;;;;;22.82;57.23;98748.72;5073179;28;45393;-58
2022/06/30 06:33:50;;;;;;;;;14.00;12.75;;;;;22.85;57.35;98748.41;5073713;27;46109;-58
2022/06/30 06:36:16;;;;;;;;;10.00;10.00;;;;;22.90;57.25;98743.44;5073408;27;45315;-58
2022/06/30 06:38:41;;;;;;;;;12.50;12.00;;;;;22.95;57.18;98744.72;5073452;27;45395;-58
2022/06/30 06:41:08;;;;;;;;;11.75;11.00;;;;;23.01;57.17;98737.88;5072922;27;45399;-58
2022/06/30 06:43:34;;;;;;;;;16.50;14.75;;;;;23.06;56.95;98735.59;5071552;28;45439;-58
2022/06/30 06:45:59;;;;;;;;;17.25;17.25;;;;;23.12;56.51;98728.78;5073905;28;45423;-58
2022/06/30 06:48:25;;;;;;;;;13.50;13.00;;;;;23.16;56.56;98724.75;5076643;27;45294;-58
2022/06/30 06:50:50;;;;;;;;;17.75;17.00;;;;;23.22;56.51;98725.03;5075856;27;45384;-59
2022/06/30 06:53:15;;;;;;;;;14.00;14.00;;;;;23.28;57.02;98726.28;5076233;27;45409;-58
2022/06/30 06:55:41;;;;;;;;;15.25;12.75;;;;;23.35;56.93;98721.13;5075838;27;45373;-58
2022/06/30 06:58:08;;;;;;;;;14.50;13.00;;;;;23.40;56.02;98714.28;5074986;28;45612;-58
2022/06/30 07:00:33;;;;;;;;;14.25;13.25;;;;;23.45;55.97;98712.00;5092292;27;45420;-58
2022/06/30 07:02:59;;;;;;;;;16.75;13.25;;;;;23.52;55.94;98714.94;5076495;28;46218;-59
2022/06/30 07:05:26;;;;;;;;;16.50;15.75;;;;;23.56;56.02;98709.09;5076581;27;45380;-58
2022/06/30 07:08:01;;;;;;;;;12.75;12.25;;;;;23.63;55.70;98702.09;5077554;27;45439;-58
2022/06/30 07:10:28;;;;;;;;;12.25;12.25;;;;;23.68;55.67;98701.63;5077325;28;45387;-59
2022/06/30 07:12:55;;;;;;;;;12.25;11.75;;;;;23.72;55.99;98694.94;5077132;27;45747;-58
2022/06/30 07:15:24;;;;;;;;;13.60;13.00;;;;;23.73;55.74;98691.25;5076925;27;45336;-58
2022/06/30 07:17:49;;;;;;;;;16.75;15.00;;;;;23.75;55.45;98688.41;5077639;27;45437;-58
2022/06/30 07:20:15;;;;;;;;;12.00;12.00;;;;;23.78;55.44;98685.41;5076793;28;45499;-58
2022/06/30 07:22:41;;;;;;;;;12.75;12.75;;;;;23.83;55.49;98689.31;5076227;27;46304;-58
2022/06/30 07:25:07;;;;;;;;;13.50;13.50;;;;;23.88;55.74;98689.69;5076954;27;45418;-59
2022/06/30 07:27:34;;;;;;;;;13.25;10.00;;;;;23.95;55.78;98687.22;5077569;27;45422;-58
2022/06/30 07:29:59;;;;;;;;;12.25;12.00;;;;;24.01;55.96;98689.28;5075563;27;45483;-59
2022/06/30 07:32:25;;;;;;;;;15.25;13.50;;;;;24.07;55.70;98677.03;5076027;28;46419;-58
2022/06/30 07:34:50;;;;;;;;;14.00;13.25;;;;;24.12;55.73;98670.19;5076090;27;45475;-59
2022/06/30 07:37:16;;;;;;;;;13.75;13.50;;;;;24.20;55.99;98666.69;5076102;27;45289;-58
2022/06/30 07:39:41;;;;;;;;;16.75;14.00;;;;;24.24;55.91;98663.56;5076891;27;45477;-58
2022/06/30 07:42:07;;;;;;;;;14.25;14.00;;;;;24.29;56.08;98666.63;5076765;27;45313;-59
2022/06/30 07:44:33;;;;;;;;;12.50;12.50;;;;;24.34;55.92;98664.28;5076688;27;45586;-58
2022/06/30 07:46:58;;;;;;;;;11.50;11.50;;;;;24.42;55.54;98654.56;5076949;28;45400;-58
2022/06/30 07:49:23;;;;;;;;;13.50;12.50;;;;;24.48;55.42;98648.50;5073407;28;45532;-58
2022/06/30 07:51:49;;;;;;;;;13.50;13.50;;;;;24.56;54.73;98653.97;5075545;28;48049;-58
2022/06/30 07:54:15;;;;;;;;;10.25;9.00;;;;;24.65;54.68;98647.59;5076774;27;45321;-58
2022/06/30 07:56:40;;;;;;;;;13.00;13.00;;;;;24.74;54.26;98651.19;5076534;27;45385;-58
2022/06/30 07:59:06;;;;;;;;;14.00;12.50;;;;;24.82;54.52;98640.41;5075278;28;45427;-58
2022/06/30 08:01:32;;;;;;;;;11.75;11.00;;;;;24.89;53.98;98644.16;5076131;27;45511;-58
2022/06/30 08:03:57;;;;;;;;;12.50;12.50;;;;;24.97;54.03;98646.88;5076208;28;45459;-58
2022/06/30 08:06:24;;;;;;;;;13.50;13.50;;;;;25.06;53.99;98642.38;5076829;27;45322;-58
2022/06/30 08:08:50;;;;;;;;;18.50;18.50;;;;;25.13;53.93;98638.88;5076251;27;45523;-58
2022/06/30 08:11:16;;;;;;;;;13.75;13.00;;;;;25.22;53.91;98635.16;5075786;27;45415;-58
2022/06/30 08:13:41;;;;;;;;;13.75;13.00;;;;;25.29;53.95;98628.09;5076469;28;45438;-58
2022/06/30 08:16:07;;;;;;;;;13.25;12.25;;;;;25.37;53.64;98629.94;5076164;27;45582;-58
2022/06/30 08:18:33;;;;;;;;;14.00;14.00;;;;;25.47;53.44;98625.22;5075785;27;45424;-58
2022/06/30 08:20:59;;;;;;;;;15.50;15.25;;;;;25.58;53.17;98618.66;5076226;27;45461;-59
2022/06/30 08:23:24;;;;;;;;;13.60;13.60;;;;;25.66;53.22;98615.97;5075649;27;45503;-59
2022/06/30 08:25:49;;;;;;;;;12.50;12.50;;;;;25.76;53.13;98607.72;5075221;28;45986;-59
2022/06/30 08:28:15;;;;;;;;;18.00;17.25;;;;;25.88;53.25;98617.16;5076371;27;45379;-59
2022/06/30 08:30:40;;;;;;;;;12.25;12.25;;;;;25.97;52.94;98617.00;5076239;27;46096;-59
2022/06/30 08:33:06;;;;;;;;;15.00;14.00;;;;;26.06;53.22;98610.53;5057346;28;45380;-59
2022/06/30 08:35:32;;;;;;;;;15.00;14.00;;;;;26.17;52.72;98611.19;5076257;27;45601;-58
2022/06/30 08:37:57;;;;;;;;;14.25;14.25;;;;;26.24;52.92;98612.19;5076266;27;45442;-59
2022/06/30 08:43:11;;;;;;;;;19.00;18.80;;;;;26.43;52.46;98609.13;5076010;28;45482;-59
2022/06/30 08:45:37;;;;;;;;;13.50;13.50;;;;;26.54;52.31;98607.88;5074326;27;45423;-59
2022/06/30 08:48:03;;;;;;;;;13.25;13.25;;;;;26.63;52.42;98610.41;5075544;27;45298;-59
2022/06/30 08:50:28;;;;;;;;;17.25;15.50;;;;;26.77;52.16;98598.84;5075521;27;45948;-59
2022/06/30 08:52:56;;;;;;;;;15.75;14.50;;;;;26.89;51.42;98591.16;5076131;28;45433;-59
2022/06/30 08:55:26;;;;;;;;;17.75;16.75;;;;;27.01;50.93;98589.75;5075934;27;45443;-59
2022/06/30 08:57:56;;;;;;;;;13.00;13.00;;;;;27.16;51.15;98597.09;5075378;27;45479;-59
2022/06/30 09:00:23;;;;;;;;;16.50;15.50;;;;;27.31;50.58;98585.34;5075287;28;45564;-59
2022/06/30 09:02:49;;;;;;;;;9.60;8.00;;;;;27.47;50.43;98578.09;5070751;27;45202;-59
2022/06/30 09:05:15;;;;;;;;;14.75;13.50;;;;;27.55;49.99;98576.16;5068019;28;45411;-59
2022/06/30 09:07:41;;;;;;;;;16.25;12.00;;;;;27.67;49.84;98572.00;5090754;27;45762;-59
2022/06/30 09:10:07;;;;;;;;;14.00;14.00;;;;;27.82;49.78;98569.31;5075077;28;46247;-58
2022/06/30 09:12:33;;;;;;;;;13.20;13.20;;;;;27.99;49.14;98572.72;5074340;28;45518;-59
2022/06/30 09:14:59;;;;;;;;;15.00;12.25;;;;;28.12;48.77;98573.78;5075784;27;45419;-59
2022/06/30 09:17:29;;;;;;;;;16.25;16.25;;;;;28.25;48.46;98575.84;5091321;27;45465;-59
2022/06/30 09:19:59;;;;;;;;;16.75;16.75;;;;;28.40;47.81;98573.97;5074571;27;45665;-59
2022/06/30 09:22:30;;;;;;;;;17.80;15.20;;;;;28.54;47.62;98583.13;5074941;27;45429;-59
2022/06/30 09:24:58;;;;;;;;;15.25;14.00;;;;;28.66;46.96;98578.88;5075242;27;45294;-59
2022/06/30 09:27:27;;;;;;;;;20.25;16.50;;;;;28.79;47.13;98564.66;5075446;27;45434;-59
2022/06/30 09:29:52;;;;;;;;;15.00;15.00;;;;;28.86;46.40;98573.75;5075249;27;45839;-59
2022/06/30 09:32:18;;;;;;;;;18.75;14.75;;;;;28.93;46.51;98571.13;5075512;27;45404;-59
2022/06/30 09:34:44;;;;;;;;;13.50;13.50;;;;;29.00;45.92;98578.28;5075062;27;45490;-59
2022/06/30 09:37:23;;;;;;;;;13.50;13.50;;;;;29.11;45.54;98564.22;5090943;27;45614;-59
2022/06/30 09:39:51;;;;;;;;;17.50;14.25;;;;;29.24;45.54;98568.94;5074890;27;45469;-59
2022/06/30 09:42:37;;;;;;;;;14.20;12.40;;;;;29.41;45.54;98564.97;5074646;27;45426;-59
2022/06/30 09:45:07;;;;;;;;;13.75;11.25;;;;;29.59;44.83;98564.47;5075184;27;45378;-59
2022/06/30 09:47:34;;;;;;;;;12.25;12.25;;;;;29.76;44.94;98559.59;5074755;27;45464;-59
2022/06/30 09:50:06;;;;;;;;;12.25;12.25;;;;;29.94;44.86;98559.09;5074750;27;46452;-59
2022/06/30 09:52:33;;;;;;;;;13.80;13.00;;;;;30.05;44.30;98556.69;5074610;27;45490;-59
2022/06/30 09:55:07;;;;;;;;;14.00;14.00;;;;;30.15;43.58;98551.75;5075424;27;45502;-59
2022/06/30 09:57:38;;;;;;;;;12.25;11.50;;;;;30.17;42.53;98549.66;5074770;27;45329;-59
2022/06/30 10:00:12;;;;;;;;;12.50;12.50;;;;;30.23;42.61;98552.63;5073430;28;47828;-59
2022/06/30 10:02:40;;;;;;;;;11.40;10.00;;;;;30.30;42.40;98556.22;5074818;27;45504;-59
2022/06/30 10:05:07;;;;;;;;;11.75;10.50;;;;;30.36;42.05;98552.69;5074260;27;45403;-59
2022/06/30 10:07:35;;;;;;;;;14.75;13.50;;;;;30.36;41.36;98547.25;5074405;28;45466;-59
2022/06/30 10:10:06;;;;;;;;;12.50;11.00;;;;;30.34;41.47;98544.72;5074095;27;45583;-59
2022/06/30 10:12:33;;;;;;;;;13.60;13.00;;;;;30.26;41.31;98541.34;5074313;27;45372;-59
2022/06/30 10:14:59;;;;;;;;;6.00;6.00;;;;;30.03;40.64;98541.63;5073640;27;45332;-59
2022/06/30 10:17:32;;;;;;;;;10.25;10.25;;;;;29.76;41.43;98543.28;5074210;27;45481;-59
2022/06/30 10:19:58;;;;;;;;;11.25;11.25;;;;;29.52;41.05;98539.13;5073755;27;45446;-59
2022/06/30 10:22:26;;;;;;;;;12.80;12.60;;;;;29.33;41.63;98540.59;5072953;28;45451;-59
2022/06/30 10:24:54;;;;;;;;;12.50;12.50;;;;;29.27;42.16;98538.69;5074332;27;45427;-59
2022/06/30 10:27:21;;;;;;;;;10.75;10.75;;;;;29.22;41.44;98535.69;5074400;27;45463;-59
2022/06/30 10:29:53;;;;;;;;;10.75;10.75;;;;;29.16;41.78;98531.88;5074393;27;46160;-59
2022/06/30 10:32:40;;;;;;;;;13.00;13.00;;;;;29.12;42.68;98530.59;5074647;27;45360;-59
2022/06/30 10:35:18;;;;;;;;;12.00;12.00;;;;;29.12;42.41;98521.63;5074187;27;45364;-59
2022/06/30 10:37:46;;;;;;;;;12.75;11.50;;;;;29.10;42.72;98527.25;5073371;27;45364;-59
2022/06/30 10:40:53;;;;;;;;;12.75;12.75;;;;;29.04;41.88;98522.56;5074098;27;46651;-59
2022/06/30 10:43:19;;;;;;;;;13.80;12.20;;;;;29.02;41.80;98521.09;5074075;27;45390;-59
2022/06/30 10:46:03;;;;;;;;;12.75;11.75;;;;;28.97;41.94;98520.84;5073191;28;45484;-59
2022/06/30 10:49:08;;;;;;;;;12.50;12.50;;;;;28.95;42.71;98529.19;5074361;27;45514;-59
2022/06/30 10:51:34;;;;;;;;;11.50;10.25;;;;;28.93;42.59;98512.25;5053112;27;45666;-59
2022/06/30 10:53:59;;;;;;;;;10.50;10.50;;;;;28.94;41.07;98513.94;5074037;28;45474;-59
2022/06/30 10:56:53;;;;;;;;;10.00;8.75;;;;;28.95;40.31;98521.03;5073009;28;45353;-59
2022/06/30 10:59:31;;;;;;;;;5.75;5.75;;;;;28.97;40.32;98504.56;5074100;27;45375;-58
2022/06/30 11:02:12;;;;;;;;;7.00;7.00;;;;;28.97;40.63;98510.84;5073891;27;45666;-59
2022/06/30 11:04:45;;;;;;;;;8.20;8.00;;;;;29.02;40.14;98508.34;5072182;28;45351;-60
2022/06/30 11:07:23;;;;;;;;;9.80;7.00;;;;;29.12;38.88;98510.75;5074144;27;45333;-59
2022/06/30 11:09:51;;;;;;;;;7.75;7.75;;;;;29.20;39.95;98516.03;5064275;28;45542;-59
2022/06/30 11:12:23;;;;;;;;;8.00;7.50;;;;;29.23;39.79;98512.94;5072882;28;46582;-59
2022/06/30 11:14:50;;;;;;;;;9.00;8.20;;;;;29.30;38.91;98508.44;5074142;27;45363;-59
2022/06/30 11:17:17;;;;;;;;;9.00;7.50;;;;;29.40;38.50;98508.09;5072649;28;45429;-59
2022/06/30 11:19:43;;;;;;;;;6.50;6.50;;;;;29.49;38.26;98505.03;5073810;28;45471;-59
2022/06/30 11:22:13;;;;;;;;;6.00;5.50;;;;;29.54;37.20;98511.75;5073416;27;47431;-59
2022/06/30 11:24:40;;;;;;;;;7.00;6.20;;;;;29.57;37.87;98501.34;5088885;27;45472;-59
2022/06/30 11:27:24;;;;;;;;;6.25;5.75;;;;;29.62;37.99;98511.63;5073747;27;45481;-59
2022/06/30 11:29:57;;;;;;;;;5.25;4.75;;;;;29.66;38.24;98527.31;5073742;27;45352;-59
2022/06/30 11:32:23;;;;;;;;;7.00;7.00;;;;;29.66;38.05;98511.03;5075779;28;45619;-59
2022/06/30 11:34:49;;;;;;;;;7.25;7.25;;;;;29.70;38.65;98495.16;5092346;27;45645;-59
2022/06/30 11:37:26;;;;;;;;;7.25;6.25;;;;;29.74;38.33;98527.19;5077043;27;45479;-59